sensor_id;sensor_type;location;lat;lon;timestamp;P1;durP1;ratioP1;P2;durP2;ratioP2
54935;SDS011;40838;50.676;7.838;2023-07-24T00:00:12;11.57;;;3.35;;
54935;SDS011;40838;50.676;7.838;2023-07-24T00:02:39;7.47;;;3.50;;
54935;SDS011;40838;50.676;7.838;2023-07-24T00:05:07;3.25;;;2.72;;
54935;SDS011;40838;50.676;7.838;2023-07-24T00:07:38;3.13;;;2.33;;
54935;SDS011;40838;50.676;7.838;2023-07-24T00:10:05;8.18;;;2.58;;
54935;SDS011;40838;50.676;7.838;2023-07-24T00:12:32;5.75;;;2.45;;
54935;SDS011;40838;50.676;7.838;2023-07-24T00:15:01;5.18;;;2.55;;
54935;SDS011;40838;50.676;7.838;2023-07-24T00:17:27;4.45;;;2.72;;
54935;SDS011;40838;50.676;7.838;2023-07-24T00:19:54;6.90;;;3.00;;
54935;SDS011;40838;50.676;7.838;2023-07-24T00:22:21;2.67;;;2.33;;
54935;SDS011;40838;50.676;7.838;2023-07-24T00:24:49;3.72;;;2.55;;
54935;SDS011;40838;50.676;7.838;2023-07-24T00:27:16;3.25;;;2.65;;
54935;SDS011;40838;50.676;7.838;2023-07-24T00:29:49;4.60;;;2.70;;
54935;SDS011;40838;50.676;7.838;2023-07-24T00:32:16;5.45;;;2.42;;
54935;SDS011;40838;50.676;7.838;2023-07-24T00:34:44;3.08;;;2.55;;
54935;SDS011;40838;50.676;7.838;2023-07-24T00:37:11;4.60;;;2.97;;
54935;SDS011;40838;50.676;7.838;2023-07-24T00:39:37;4.20;;;2.83;;
54935;SDS011;40838;50.676;7.838;2023-07-24T00:42:10;5.43;;;3.03;;
54935;SDS011;40838;50.676;7.838;2023-07-24T00:44:39;5.20;;;3.10;;
54935;SDS011;40838;50.676;7.838;2023-07-24T00:47:06;5.60;;;2.63;;
54935;SDS011;40838;50.676;7.838;2023-07-24T00:49:33;4.00;;;2.83;;
54935;SDS011;40838;50.676;7.838;2023-07-24T00:52:02;4.22;;;3.10;;
54935;SDS011;40838;50.676;7.838;2023-07-24T00:54:35;6.82;;;2.65;;
54935;SDS011;40838;50.676;7.838;2023-07-24T00:57:04;4.85;;;2.50;;
54935;SDS011;40838;50.676;7.838;2023-07-24T00:59:36;3.97;;;2.67;;
54935;SDS011;40838;50.676;7.838;2023-07-24T01:02:09;3.53;;;2.60;;
54935;SDS011;40838;50.676;7.838;2023-07-24T01:04:38;4.65;;;2.50;;
54935;SDS011;40838;50.676;7.838;2023-07-24T01:07:05;7.18;;;2.65;;
54935;SDS011;40838;50.676;7.838;2023-07-24T01:09:53;3.30;;;2.80;;
54935;SDS011;40838;50.676;7.838;2023-07-24T01:12:22;3.20;;;2.60;;
54935;SDS011;40838;50.676;7.838;2023-07-24T01:15:02;7.70;;;2.28;;
54935;SDS011;40838;50.676;7.838;2023-07-24T01:17:34;3.15;;;2.55;;
54935;SDS011;40838;50.676;7.838;2023-07-24T01:20:15;2.78;;;2.22;;
54935;SDS011;40838;50.676;7.838;2023-07-24T01:22:47;2.50;;;2.25;;
54935;SDS011;40838;50.676;7.838;2023-07-24T01:25:32;4.72;;;2.30;;
54935;SDS011;40838;50.676;7.838;2023-07-24T01:28:09;4.88;;;3.03;;
54935;SDS011;40838;50.676;7.838;2023-07-24T01:30:44;3.00;;;2.40;;
54935;SDS011;40838;50.676;7.838;2023-07-24T01:33:13;2.88;;;2.33;;
54935;SDS011;40838;50.676;7.838;2023-07-24T01:35:40;5.03;;;2.45;;
54935;SDS011;40838;50.676;7.838;2023-07-24T01:38:12;3.42;;;2.60;;
54935;SDS011;40838;50.676;7.838;2023-07-24T01:40:40;3.83;;;2.55;;
54935;SDS011;40838;50.676;7.838;2023-07-24T01:43:15;3.58;;;2.40;;
54935;SDS011;40838;50.676;7.838;2023-07-24T01:45:42;3.03;;;2.30;;
54935;SDS011;40838;50.676;7.838;2023-07-24T01:48:11;2.63;;;2.20;;
54935;SDS011;40838;50.676;7.838;2023-07-24T01:50:46;5.10;;;2.78;;
54935;SDS011;40838;50.676;7.838;2023-07-24T01:53:15;6.22;;;2.90;;
54935;SDS011;40838;50.676;7.838;2023-07-24T01:55:45;4.03;;;2.92;;
54935;SDS011;40838;50.676;7.838;2023-07-24T01:58:13;4.22;;;2.90;;
54935;SDS011;40838;50.676;7.838;2023-07-24T02:00:40;4.90;;;2.42;;
54935;SDS011;40838;50.676;7.838;2023-07-24T02:03:08;3.72;;;2.67;;
54935;SDS011;40838;50.676;7.838;2023-07-24T02:05:38;3.88;;;2.83;;
54935;SDS011;40838;50.676;7.838;2023-07-24T02:08:05;6.50;;;3.13;;
54935;SDS011;40838;50.676;7.838;2023-07-24T02:10:32;4.13;;;2.80;;
54935;SDS011;40838;50.676;7.838;2023-07-24T02:12:59;3.53;;;2.80;;
54935;SDS011;40838;50.676;7.838;2023-07-24T02:15:29;4.65;;;2.80;;
54935;SDS011;40838;50.676;7.838;2023-07-24T02:17:59;3.08;;;2.75;;
54935;SDS011;40838;50.676;7.838;2023-07-24T02:20:26;2.88;;;2.53;;
54935;SDS011;40838;50.676;7.838;2023-07-24T02:22:53;7.47;;;3.00;;
54935;SDS011;40838;50.676;7.838;2023-07-24T02:25:19;4.45;;;3.10;;
54935;SDS011;40838;50.676;7.838;2023-07-24T02:27:46;3.08;;;2.67;;
54935;SDS011;40838;50.676;7.838;2023-07-24T02:30:13;3.75;;;2.90;;
54935;SDS011;40838;50.676;7.838;2023-07-24T02:32:42;7.90;;;3.30;;
54935;SDS011;40838;50.676;7.838;2023-07-24T02:35:08;6.38;;;2.90;;
54935;SDS011;40838;50.676;7.838;2023-07-24T02:37:35;3.08;;;2.72;;
54935;SDS011;40838;50.676;7.838;2023-07-24T02:40:05;8.10;;;3.10;;
54935;SDS011;40838;50.676;7.838;2023-07-24T02:42:36;7.45;;;3.75;;
54935;SDS011;40838;50.676;7.838;2023-07-24T02:45:07;5.95;;;2.90;;
54935;SDS011;40838;50.676;7.838;2023-07-24T02:47:39;5.22;;;2.80;;
54935;SDS011;40838;50.676;7.838;2023-07-24T02:50:09;4.00;;;3.22;;
54935;SDS011;40838;50.676;7.838;2023-07-24T02:52:36;4.97;;;3.20;;
54935;SDS011;40838;50.676;7.838;2023-07-24T02:55:02;6.40;;;2.78;;
54935;SDS011;40838;50.676;7.838;2023-07-24T02:57:30;4.63;;;3.20;;
54935;SDS011;40838;50.676;7.838;2023-07-24T02:59:57;4.20;;;2.80;;
54935;SDS011;40838;50.676;7.838;2023-07-24T03:02:24;7.35;;;4.22;;
54935;SDS011;40838;50.676;7.838;2023-07-24T03:04:52;3.83;;;3.22;;
54935;SDS011;40838;50.676;7.838;2023-07-24T03:07:22;3.55;;;3.08;;
54935;SDS011;40838;50.676;7.838;2023-07-24T03:09:51;5.07;;;3.15;;
54935;SDS011;40838;50.676;7.838;2023-07-24T03:12:24;4.20;;;3.33;;
54935;SDS011;40838;50.676;7.838;2023-07-24T03:14:52;5.65;;;3.17;;
54935;SDS011;40838;50.676;7.838;2023-07-24T03:17:19;3.40;;;3.10;;
54935;SDS011;40838;50.676;7.838;2023-07-24T03:19:47;2.97;;;2.60;;
54935;SDS011;40838;50.676;7.838;2023-07-24T03:22:17;5.30;;;3.00;;
54935;SDS011;40838;50.676;7.838;2023-07-24T03:24:45;4.32;;;2.85;;
54935;SDS011;40838;50.676;7.838;2023-07-24T03:27:14;3.53;;;2.67;;
54935;SDS011;40838;50.676;7.838;2023-07-24T03:29:40;4.25;;;3.15;;
54935;SDS011;40838;50.676;7.838;2023-07-24T03:32:07;4.50;;;2.72;;
54935;SDS011;40838;50.676;7.838;2023-07-24T03:34:34;4.03;;;2.88;;
54935;SDS011;40838;50.676;7.838;2023-07-24T03:37:01;6.57;;;3.53;;
54935;SDS011;40838;50.676;7.838;2023-07-24T03:39:32;6.88;;;3.08;;
54935;SDS011;40838;50.676;7.838;2023-07-24T03:42:01;5.80;;;2.80;;
54935;SDS011;40838;50.676;7.838;2023-07-24T03:44:32;5.20;;;2.92;;
54935;SDS011;40838;50.676;7.838;2023-07-24T03:46:59;6.40;;;3.17;;
54935;SDS011;40838;50.676;7.838;2023-07-24T03:49:34;5.53;;;2.92;;
54935;SDS011;40838;50.676;7.838;2023-07-24T03:52:02;3.90;;;3.05;;
54935;SDS011;40838;50.676;7.838;2023-07-24T03:54:29;4.82;;;2.78;;
54935;SDS011;40838;50.676;7.838;2023-07-24T03:57:02;5.22;;;3.25;;
54935;SDS011;40838;50.676;7.838;2023-07-24T03:59:31;5.68;;;3.25;;
54935;SDS011;40838;50.676;7.838;2023-07-24T04:01:58;5.50;;;3.08;;
54935;SDS011;40838;50.676;7.838;2023-07-24T04:04:27;9.50;;;2.97;;
54935;SDS011;40838;50.676;7.838;2023-07-24T04:06:54;4.60;;;2.90;;
54935;SDS011;40838;50.676;7.838;2023-07-24T04:09:21;4.68;;;2.88;;
54935;SDS011;40838;50.676;7.838;2023-07-24T04:11:47;4.68;;;2.90;;
54935;SDS011;40838;50.676;7.838;2023-07-24T04:14:18;4.22;;;2.95;;
54935;SDS011;40838;50.676;7.838;2023-07-24T04:16:45;4.95;;;2.95;;
54935;SDS011;40838;50.676;7.838;2023-07-24T04:19:16;4.30;;;2.70;;
54935;SDS011;40838;50.676;7.838;2023-07-24T04:21:43;4.97;;;3.22;;
54935;SDS011;40838;50.676;7.838;2023-07-24T04:24:10;7.18;;;3.33;;
54935;SDS011;40838;50.676;7.838;2023-07-24T04:26:37;4.50;;;3.28;;
54935;SDS011;40838;50.676;7.838;2023-07-24T04:29:04;4.25;;;2.95;;
54935;SDS011;40838;50.676;7.838;2023-07-24T04:31:34;5.35;;;3.28;;
54935;SDS011;40838;50.676;7.838;2023-07-24T04:34:01;7.90;;;3.55;;
54935;SDS011;40838;50.676;7.838;2023-07-24T04:36:31;4.97;;;3.00;;
54935;SDS011;40838;50.676;7.838;2023-07-24T04:39:00;4.22;;;2.70;;
54935;SDS011;40838;50.676;7.838;2023-07-24T04:41:27;6.25;;;3.25;;
54935;SDS011;40838;50.676;7.838;2023-07-24T04:43:54;3.10;;;2.80;;
54935;SDS011;40838;50.676;7.838;2023-07-24T04:46:30;4.30;;;2.83;;
54935;SDS011;40838;50.676;7.838;2023-07-24T04:49:13;4.72;;;3.00;;
54935;SDS011;40838;50.676;7.838;2023-07-24T04:51:42;4.80;;;3.10;;
54935;SDS011;40838;50.676;7.838;2023-07-24T04:54:09;5.50;;;3.45;;
54935;SDS011;40838;50.676;7.838;2023-07-24T04:56:36;7.35;;;3.40;;
54935;SDS011;40838;50.676;7.838;2023-07-24T04:59:02;6.30;;;3.78;;
54935;SDS011;40838;50.676;7.838;2023-07-24T05:01:29;4.82;;;3.10;;
54935;SDS011;40838;50.676;7.838;2023-07-24T05:03:58;3.40;;;3.00;;
54935;SDS011;40838;50.676;7.838;2023-07-24T05:06:27;4.50;;;2.80;;
54935;SDS011;40838;50.676;7.838;2023-07-24T05:08:54;5.05;;;3.45;;
54935;SDS011;40838;50.676;7.838;2023-07-24T05:11:21;7.18;;;3.80;;
54935;SDS011;40838;50.676;7.838;2023-07-24T05:13:48;5.13;;;3.38;;
54935;SDS011;40838;50.676;7.838;2023-07-24T05:16:15;4.93;;;3.15;;
54935;SDS011;40838;50.676;7.838;2023-07-24T05:18:44;8.15;;;3.70;;
54935;SDS011;40838;50.676;7.838;2023-07-24T05:21:11;4.57;;;3.13;;
54935;SDS011;40838;50.676;7.838;2023-07-24T05:23:41;5.03;;;3.35;;
54935;SDS011;40838;50.676;7.838;2023-07-24T05:26:08;5.07;;;3.65;;
54935;SDS011;40838;50.676;7.838;2023-07-24T05:28:37;5.38;;;3.17;;
54935;SDS011;40838;50.676;7.838;2023-07-24T05:31:12;5.53;;;4.00;;
54935;SDS011;40838;50.676;7.838;2023-07-24T05:33:47;6.20;;;3.38;;
54935;SDS011;40838;50.676;7.838;2023-07-24T05:36:14;5.75;;;3.22;;
54935;SDS011;40838;50.676;7.838;2023-07-24T05:38:44;7.45;;;3.53;;
54935;SDS011;40838;50.676;7.838;2023-07-24T05:41:11;9.02;;;3.55;;
54935;SDS011;40838;50.676;7.838;2023-07-24T05:43:39;5.03;;;4.07;;
54935;SDS011;40838;50.676;7.838;2023-07-24T05:46:06;7.32;;;3.03;;
54935;SDS011;40838;50.676;7.838;2023-07-24T05:48:39;5.57;;;3.13;;
54935;SDS011;40838;50.676;7.838;2023-07-24T05:51:06;7.30;;;4.00;;
54935;SDS011;40838;50.676;7.838;2023-07-24T05:53:33;9.35;;;4.13;;
54935;SDS011;40838;50.676;7.838;2023-07-24T05:56:02;5.03;;;4.00;;
54935;SDS011;40838;50.676;7.838;2023-07-24T05:58:32;7.28;;;3.67;;
54935;SDS011;40838;50.676;7.838;2023-07-24T06:00:59;7.15;;;3.90;;
54935;SDS011;40838;50.676;7.838;2023-07-24T06:03:26;4.93;;;3.75;;
54935;SDS011;40838;50.676;7.838;2023-07-24T06:05:56;7.53;;;4.00;;
54935;SDS011;40838;50.676;7.838;2023-07-24T06:08:22;7.20;;;4.00;;
54935;SDS011;40838;50.676;7.838;2023-07-24T06:10:51;4.95;;;3.70;;
54935;SDS011;40838;50.676;7.838;2023-07-24T06:13:21;8.95;;;4.18;;
54935;SDS011;40838;50.676;7.838;2023-07-24T06:15:50;5.20;;;3.40;;
54935;SDS011;40838;50.676;7.838;2023-07-24T06:18:18;5.95;;;3.83;;
54935;SDS011;40838;50.676;7.838;2023-07-24T06:20:45;6.43;;;4.40;;
54935;SDS011;40838;50.676;7.838;2023-07-24T06:23:12;7.22;;;4.05;;
54935;SDS011;40838;50.676;7.838;2023-07-24T06:25:38;8.68;;;4.45;;
54935;SDS011;40838;50.676;7.838;2023-07-24T06:28:05;8.23;;;4.55;;
54935;SDS011;40838;50.676;7.838;2023-07-24T06:30:35;6.07;;;4.03;;
54935;SDS011;40838;50.676;7.838;2023-07-24T06:33:11;5.28;;;3.63;;
54935;SDS011;40838;50.676;7.838;2023-07-24T06:35:39;6.28;;;4.32;;
54935;SDS011;40838;50.676;7.838;2023-07-24T06:38:08;8.15;;;5.10;;
54935;SDS011;40838;50.676;7.838;2023-07-24T06:40:35;6.43;;;4.70;;
54935;SDS011;40838;50.676;7.838;2023-07-24T06:43:02;5.95;;;4.57;;
54935;SDS011;40838;50.676;7.838;2023-07-24T06:45:29;5.57;;;4.13;;
54935;SDS011;40838;50.676;7.838;2023-07-24T06:47:57;6.38;;;4.18;;
54935;SDS011;40838;50.676;7.838;2023-07-24T06:50:24;6.28;;;4.35;;
54935;SDS011;40838;50.676;7.838;2023-07-24T06:52:51;7.88;;;4.72;;
54935;SDS011;40838;50.676;7.838;2023-07-24T06:55:19;6.15;;;4.28;;
54935;SDS011;40838;50.676;7.838;2023-07-24T06:57:46;6.22;;;4.47;;
54935;SDS011;40838;50.676;7.838;2023-07-24T07:00:13;6.82;;;4.13;;
54935;SDS011;40838;50.676;7.838;2023-07-24T07:02:40;7.82;;;3.80;;
54935;SDS011;40838;50.676;7.838;2023-07-24T07:05:10;4.95;;;3.67;;
54935;SDS011;40838;50.676;7.838;2023-07-24T07:07:37;5.55;;;3.80;;
54935;SDS011;40838;50.676;7.838;2023-07-24T07:10:12;7.07;;;4.13;;
54935;SDS011;40838;50.676;7.838;2023-07-24T07:12:38;8.85;;;4.43;;
54935;SDS011;40838;50.676;7.838;2023-07-24T07:15:16;8.45;;;3.75;;
54935;SDS011;40838;50.676;7.838;2023-07-24T07:17:44;7.75;;;3.70;;
54935;SDS011;40838;50.676;7.838;2023-07-24T07:20:12;8.57;;;4.82;;
54935;SDS011;40838;50.676;7.838;2023-07-24T07:22:39;6.63;;;4.80;;
54935;SDS011;40838;50.676;7.838;2023-07-24T07:25:06;7.60;;;4.40;;
54935;SDS011;40838;50.676;7.838;2023-07-24T07:27:34;6.47;;;4.22;;
54935;SDS011;40838;50.676;7.838;2023-07-24T07:30:01;10.30;;;4.45;;
54935;SDS011;40838;50.676;7.838;2023-07-24T07:32:38;7.13;;;4.20;;
54935;SDS011;40838;50.676;7.838;2023-07-24T07:35:06;8.30;;;3.95;;
54935;SDS011;40838;50.676;7.838;2023-07-24T07:37:36;7.18;;;4.55;;
54935;SDS011;40838;50.676;7.838;2023-07-24T07:40:05;6.20;;;3.72;;
54935;SDS011;40838;50.676;7.838;2023-07-24T07:42:33;6.18;;;4.13;;
54935;SDS011;40838;50.676;7.838;2023-07-24T07:45:01;9.85;;;3.85;;
54935;SDS011;40838;50.676;7.838;2023-07-24T07:47:28;5.28;;;4.00;;
54935;SDS011;40838;50.676;7.838;2023-07-24T07:49:55;9.75;;;4.50;;
54935;SDS011;40838;50.676;7.838;2023-07-24T07:52:22;5.13;;;3.90;;
54935;SDS011;40838;50.676;7.838;2023-07-24T07:54:50;6.88;;;4.30;;
54935;SDS011;40838;50.676;7.838;2023-07-24T07:57:20;5.68;;;4.47;;
54935;SDS011;40838;50.676;7.838;2023-07-24T07:59:47;5.80;;;4.10;;
54935;SDS011;40838;50.676;7.838;2023-07-24T08:02:22;5.90;;;4.13;;
54935;SDS011;40838;50.676;7.838;2023-07-24T08:04:50;6.15;;;3.78;;
54935;SDS011;40838;50.676;7.838;2023-07-24T08:07:17;6.70;;;4.32;;
54935;SDS011;40838;50.676;7.838;2023-07-24T08:09:45;6.57;;;3.97;;
54935;SDS011;40838;50.676;7.838;2023-07-24T08:12:19;7.68;;;4.28;;
54935;SDS011;40838;50.676;7.838;2023-07-24T08:14:46;9.05;;;3.95;;
54935;SDS011;40838;50.676;7.838;2023-07-24T08:17:25;6.25;;;4.10;;
54935;SDS011;40838;50.676;7.838;2023-07-24T08:19:52;7.75;;;3.90;;
54935;SDS011;40838;50.676;7.838;2023-07-24T08:22:20;8.18;;;3.92;;
54935;SDS011;40838;50.676;7.838;2023-07-24T08:24:48;5.90;;;3.80;;
54935;SDS011;40838;50.676;7.838;2023-07-24T08:27:16;7.95;;;4.00;;
54935;SDS011;40838;50.676;7.838;2023-07-24T08:29:50;8.65;;;5.03;;
54935;SDS011;40838;50.676;7.838;2023-07-24T08:32:17;7.88;;;4.15;;
54935;SDS011;40838;50.676;7.838;2023-07-24T08:34:46;6.40;;;4.28;;
54935;SDS011;40838;50.676;7.838;2023-07-24T08:37:13;8.82;;;4.57;;
54935;SDS011;40838;50.676;7.838;2023-07-24T08:39:40;7.20;;;4.32;;
54935;SDS011;40838;50.676;7.838;2023-07-24T08:42:08;7.72;;;3.95;;
54935;SDS011;40838;50.676;7.838;2023-07-24T08:47:25;6.03;;;3.80;;
54935;SDS011;40838;50.676;7.838;2023-07-24T08:49:54;4.55;;;3.88;;
54935;SDS011;40838;50.676;7.838;2023-07-24T08:52:23;6.95;;;3.80;;
54935;SDS011;40838;50.676;7.838;2023-07-24T08:54:50;6.15;;;4.38;;
54935;SDS011;40838;50.676;7.838;2023-07-24T08:57:18;12.63;;;4.75;;
54935;SDS011;40838;50.676;7.838;2023-07-24T08:59:47;5.72;;;3.88;;
54935;SDS011;40838;50.676;7.838;2023-07-24T09:02:16;5.18;;;3.42;;
54935;SDS011;40838;50.676;7.838;2023-07-24T09:04:44;6.32;;;4.00;;
54935;SDS011;40838;50.676;7.838;2023-07-24T09:07:11;4.95;;;3.95;;
54935;SDS011;40838;50.676;7.838;2023-07-24T09:09:39;5.72;;;3.78;;
54935;SDS011;40838;50.676;7.838;2023-07-24T09:12:16;8.07;;;4.15;;
54935;SDS011;40838;50.676;7.838;2023-07-24T09:14:43;5.05;;;3.83;;
54935;SDS011;40838;50.676;7.838;2023-07-24T09:17:12;6.95;;;3.72;;
54935;SDS011;40838;50.676;7.838;2023-07-24T09:19:43;6.85;;;4.00;;
54935;SDS011;40838;50.676;7.838;2023-07-24T09:22:10;8.93;;;4.05;;
54935;SDS011;40838;50.676;7.838;2023-07-24T09:24:52;10.98;;;3.55;;
54935;SDS011;40838;50.676;7.838;2023-07-24T09:27:20;5.30;;;2.53;;
54935;SDS011;40838;50.676;7.838;2023-07-24T09:29:51;4.78;;;3.75;;
54935;SDS011;40838;50.676;7.838;2023-07-24T09:32:19;6.78;;;3.90;;
54935;SDS011;40838;50.676;7.838;2023-07-24T09:34:50;8.18;;;3.38;;
54935;SDS011;40838;50.676;7.838;2023-07-24T09:37:33;5.28;;;3.47;;
54935;SDS011;40838;50.676;7.838;2023-07-24T09:40:03;5.85;;;3.45;;
54935;SDS011;40838;50.676;7.838;2023-07-24T09:42:30;6.72;;;3.70;;
54935;SDS011;40838;50.676;7.838;2023-07-24T09:45:00;5.78;;;3.72;;
54935;SDS011;40838;50.676;7.838;2023-07-24T09:47:28;6.30;;;3.53;;
54935;SDS011;40838;50.676;7.838;2023-07-24T09:50:00;4.32;;;3.28;;
54935;SDS011;40838;50.676;7.838;2023-07-24T09:52:30;5.78;;;3.38;;
54935;SDS011;40838;50.676;7.838;2023-07-24T09:54:59;8.70;;;3.47;;
54935;SDS011;40838;50.676;7.838;2023-07-24T09:57:31;5.60;;;3.25;;
54935;SDS011;40838;50.676;7.838;2023-07-24T10:00:02;4.50;;;3.15;;
54935;SDS011;40838;50.676;7.838;2023-07-24T10:02:30;5.45;;;3.35;;
54935;SDS011;40838;50.676;7.838;2023-07-24T10:04:57;4.97;;;3.08;;
54935;SDS011;40838;50.676;7.838;2023-07-24T10:07:25;2.78;;;2.53;;
54935;SDS011;40838;50.676;7.838;2023-07-24T10:09:53;4.38;;;3.17;;
54935;SDS011;40838;50.676;7.838;2023-07-24T10:12:21;3.75;;;3.05;;
54935;SDS011;40838;50.676;7.838;2023-07-24T10:14:49;3.80;;;2.90;;
54935;SDS011;40838;50.676;7.838;2023-07-24T10:17:24;5.82;;;3.28;;
54935;SDS011;40838;50.676;7.838;2023-07-24T10:22:41;5.68;;;3.08;;
54935;SDS011;40838;50.676;7.838;2023-07-24T10:25:11;4.55;;;3.17;;
54935;SDS011;40838;50.676;7.838;2023-07-24T10:27:41;5.38;;;3.50;;
54935;SDS011;40838;50.676;7.838;2023-07-24T10:30:09;4.57;;;3.28;;
54935;SDS011;40838;50.676;7.838;2023-07-24T10:32:44;4.88;;;3.55;;
54935;SDS011;40838;50.676;7.838;2023-07-24T10:35:12;8.07;;;3.75;;
54935;SDS011;40838;50.676;7.838;2023-07-24T10:37:58;4.95;;;3.58;;
54935;SDS011;40838;50.676;7.838;2023-07-24T10:40:25;5.45;;;3.45;;
54935;SDS011;40838;50.676;7.838;2023-07-24T10:42:58;5.43;;;3.83;;
54935;SDS011;40838;50.676;7.838;2023-07-24T10:45:26;8.30;;;4.60;;
54935;SDS011;40838;50.676;7.838;2023-07-24T10:47:53;4.93;;;3.45;;
54935;SDS011;40838;50.676;7.838;2023-07-24T10:50:19;5.75;;;3.80;;
54935;SDS011;40838;50.676;7.838;2023-07-24T10:52:48;3.47;;;2.90;;
54935;SDS011;40838;50.676;7.838;2023-07-24T10:55:26;6.60;;;3.42;;
54935;SDS011;40838;50.676;7.838;2023-07-24T10:57:55;5.40;;;3.50;;
54935;SDS011;40838;50.676;7.838;2023-07-24T11:00:29;6.05;;;3.55;;
54935;SDS011;40838;50.676;7.838;2023-07-24T11:02:58;6.20;;;3.33;;
54935;SDS011;40838;50.676;7.838;2023-07-24T11:05:25;4.65;;;3.33;;
54935;SDS011;40838;50.676;7.838;2023-07-24T11:07:54;6.68;;;3.03;;
54935;SDS011;40838;50.676;7.838;2023-07-24T11:10:22;3.85;;;3.13;;
54935;SDS011;40838;50.676;7.838;2023-07-24T11:12:50;4.80;;;3.22;;
54935;SDS011;40838;50.676;7.838;2023-07-24T11:15:23;8.63;;;3.63;;
54935;SDS011;40838;50.676;7.838;2023-07-24T11:17:51;8.07;;;3.57;;
54935;SDS011;40838;50.676;7.838;2023-07-24T11:20:22;6.43;;;3.28;;
54935;SDS011;40838;50.676;7.838;2023-07-24T11:22:49;5.00;;;3.00;;
54935;SDS011;40838;50.676;7.838;2023-07-24T11:25:17;3.05;;;2.67;;
54935;SDS011;40838;50.676;7.838;2023-07-24T11:27:46;3.85;;;3.20;;
54935;SDS011;40838;50.676;7.838;2023-07-24T11:30:18;3.42;;;2.90;;
54935;SDS011;40838;50.676;7.838;2023-07-24T11:32:46;3.67;;;2.63;;
54935;SDS011;40838;50.676;7.838;2023-07-24T11:35:14;4.95;;;3.58;;
54935;SDS011;40838;50.676;7.838;2023-07-24T11:37:41;5.60;;;3.33;;
54935;SDS011;40838;50.676;7.838;2023-07-24T11:40:08;4.70;;;3.30;;
54935;SDS011;40838;50.676;7.838;2023-07-24T11:42:39;4.60;;;3.50;;
54935;SDS011;40838;50.676;7.838;2023-07-24T11:45:21;4.75;;;3.33;;
54935;SDS011;40838;50.676;7.838;2023-07-24T11:47:51;4.32;;;3.20;;
54935;SDS011;40838;50.676;7.838;2023-07-24T11:50:19;9.52;;;3.95;;
54935;SDS011;40838;50.676;7.838;2023-07-24T11:52:48;4.75;;;3.00;;
54935;SDS011;40838;50.676;7.838;2023-07-24T11:55:17;4.75;;;3.33;;
54935;SDS011;40838;50.676;7.838;2023-07-24T11:57:59;4.60;;;3.40;;
54935;SDS011;40838;50.676;7.838;2023-07-24T12:00:37;5.05;;;4.03;;
54935;SDS011;40838;50.676;7.838;2023-07-24T12:03:04;4.70;;;3.13;;
54935;SDS011;40838;50.676;7.838;2023-07-24T12:05:37;4.50;;;3.15;;
54935;SDS011;40838;50.676;7.838;2023-07-24T12:08:04;6.82;;;3.55;;
54935;SDS011;40838;50.676;7.838;2023-07-24T12:10:31;5.47;;;3.90;;
54935;SDS011;40838;50.676;7.838;2023-07-24T12:13:01;7.15;;;3.40;;
54935;SDS011;40838;50.676;7.838;2023-07-24T12:15:30;4.22;;;3.33;;
54935;SDS011;40838;50.676;7.838;2023-07-24T12:17:58;7.05;;;3.28;;
54935;SDS011;40838;50.676;7.838;2023-07-24T12:20:30;6.53;;;2.58;;
54935;SDS011;40838;50.676;7.838;2023-07-24T12:22:59;3.45;;;2.65;;
54935;SDS011;40838;50.676;7.838;2023-07-24T12:25:29;4.30;;;2.70;;
54935;SDS011;40838;50.676;7.838;2023-07-24T12:27:59;4.50;;;2.92;;
54935;SDS011;40838;50.676;7.838;2023-07-24T12:30:26;6.03;;;2.83;;
54935;SDS011;40838;50.676;7.838;2023-07-24T12:32:55;5.00;;;3.15;;
54935;SDS011;40838;50.676;7.838;2023-07-24T12:35:24;4.35;;;2.95;;
54935;SDS011;40838;50.676;7.838;2023-07-24T12:37:53;4.43;;;2.80;;
54935;SDS011;40838;50.676;7.838;2023-07-24T12:40:20;4.68;;;3.15;;
54935;SDS011;40838;50.676;7.838;2023-07-24T12:42:47;4.38;;;3.25;;
54935;SDS011;40838;50.676;7.838;2023-07-24T12:45:16;3.55;;;3.25;;
54935;SDS011;40838;50.676;7.838;2023-07-24T12:47:43;6.57;;;3.38;;
54935;SDS011;40838;50.676;7.838;2023-07-24T12:50:11;4.30;;;3.30;;
54935;SDS011;40838;50.676;7.838;2023-07-24T12:52:41;4.72;;;3.47;;
54935;SDS011;40838;50.676;7.838;2023-07-24T12:55:08;4.40;;;3.50;;
54935;SDS011;40838;50.676;7.838;2023-07-24T12:57:35;9.27;;;4.10;;
54935;SDS011;40838;50.676;7.838;2023-07-24T13:00:17;5.72;;;3.45;;
54935;SDS011;40838;50.676;7.838;2023-07-24T13:02:44;9.45;;;4.30;;
54935;SDS011;40838;50.676;7.838;2023-07-24T13:05:13;10.77;;;4.57;;
54935;SDS011;40838;50.676;7.838;2023-07-24T13:07:42;6.53;;;3.70;;
54935;SDS011;40838;50.676;7.838;2023-07-24T13:10:11;13.13;;;4.05;;
54935;SDS011;40838;50.676;7.838;2023-07-24T13:12:40;8.20;;;4.20;;
54935;SDS011;40838;50.676;7.838;2023-07-24T13:15:07;3.90;;;3.50;;
54935;SDS011;40838;50.676;7.838;2023-07-24T13:17:34;6.53;;;3.55;;
54935;SDS011;40838;50.676;7.838;2023-07-24T13:20:01;6.65;;;3.88;;
54935;SDS011;40838;50.676;7.838;2023-07-24T13:22:32;7.60;;;3.80;;
54935;SDS011;40838;50.676;7.838;2023-07-24T13:24:59;5.00;;;3.38;;
54935;SDS011;40838;50.676;7.838;2023-07-24T13:27:26;5.65;;;3.53;;
54935;SDS011;40838;50.676;7.838;2023-07-24T13:29:54;4.13;;;3.08;;
54935;SDS011;40838;50.676;7.838;2023-07-24T13:32:21;5.93;;;2.78;;
54935;SDS011;40838;50.676;7.838;2023-07-24T13:34:50;4.68;;;3.08;;
54935;SDS011;40838;50.676;7.838;2023-07-24T13:37:17;2.75;;;2.50;;
54935;SDS011;40838;50.676;7.838;2023-07-24T13:39:47;4.25;;;2.38;;
54935;SDS011;40838;50.676;7.838;2023-07-24T13:42:14;5.88;;;3.08;;
54935;SDS011;40838;50.676;7.838;2023-07-24T13:44:41;3.65;;;2.55;;
54935;SDS011;40838;50.676;7.838;2023-07-24T13:47:07;4.03;;;2.63;;
54935;SDS011;40838;50.676;7.838;2023-07-24T13:49:37;2.58;;;2.25;;
54935;SDS011;40838;50.676;7.838;2023-07-24T13:52:12;5.10;;;2.20;;
54935;SDS011;40838;50.676;7.838;2023-07-24T13:54:39;2.38;;;1.80;;
54935;SDS011;40838;50.676;7.838;2023-07-24T13:57:07;2.42;;;1.80;;
54935;SDS011;40838;50.676;7.838;2023-07-24T13:59:42;3.10;;;1.83;;
54935;SDS011;40838;50.676;7.838;2023-07-24T14:02:09;3.70;;;1.90;;
54935;SDS011;40838;50.676;7.838;2023-07-24T14:04:41;2.38;;;1.90;;
54935;SDS011;40838;50.676;7.838;2023-07-24T14:07:08;2.15;;;1.30;;
54935;SDS011;40838;50.676;7.838;2023-07-24T14:09:35;1.55;;;1.35;;
54935;SDS011;40838;50.676;7.838;2023-07-24T14:12:05;3.50;;;1.60;;
54935;SDS011;40838;50.676;7.838;2023-07-24T14:14:34;5.38;;;1.60;;
54935;SDS011;40838;50.676;7.838;2023-07-24T14:17:01;1.98;;;1.55;;
54935;SDS011;40838;50.676;7.838;2023-07-24T14:19:27;1.63;;;1.52;;
54935;SDS011;40838;50.676;7.838;2023-07-24T14:21:54;4.65;;;1.45;;
54935;SDS011;40838;50.676;7.838;2023-07-24T14:24:25;4.00;;;1.52;;
54935;SDS011;40838;50.676;7.838;2023-07-24T14:26:52;4.13;;;1.20;;
54935;SDS011;40838;50.676;7.838;2023-07-24T14:29:23;1.20;;;1.00;;
54935;SDS011;40838;50.676;7.838;2023-07-24T14:31:51;1.83;;;1.10;;
54935;SDS011;40838;50.676;7.838;2023-07-24T14:34:18;1.58;;;1.38;;
54935;SDS011;40838;50.676;7.838;2023-07-24T14:36:45;2.08;;;1.00;;
54935;SDS011;40838;50.676;7.838;2023-07-24T14:39:12;1.88;;;1.25;;
54935;SDS011;40838;50.676;7.838;2023-07-24T14:41:39;4.60;;;1.40;;
54935;SDS011;40838;50.676;7.838;2023-07-24T14:44:07;2.72;;;1.23;;
54935;SDS011;40838;50.676;7.838;2023-07-24T14:46:36;1.90;;;1.50;;
54935;SDS011;40838;50.676;7.838;2023-07-24T14:49:02;2.35;;;1.33;;
54935;SDS011;40838;50.676;7.838;2023-07-24T14:51:29;2.65;;;1.38;;
54935;SDS011;40838;50.676;7.838;2023-07-24T14:53:56;1.40;;;1.20;;
54935;SDS011;40838;50.676;7.838;2023-07-24T14:56:23;1.50;;;1.17;;
54935;SDS011;40838;50.676;7.838;2023-07-24T14:58:50;1.88;;;1.38;;
54935;SDS011;40838;50.676;7.838;2023-07-24T15:01:17;1.83;;;1.25;;
54935;SDS011;40838;50.676;7.838;2023-07-24T15:03:45;1.85;;;1.20;;